sensor_id;sensor_type;location;lat;lon;timestamp;pressure;altitude;pressure_sealevel;temperature;humidity
77041;BME280;65974;42.664;23.264;2023-04-03T00:01:23;93776.97;;;6.34;68.94
77041;BME280;65974;42.664;23.264;2023-04-03T00:03:48;93767.84;;;6.28;69.66
77041;BME280;65974;42.664;23.264;2023-04-03T00:06:15;93767.81;;;6.24;69.38
77041;BME280;65974;42.664;23.264;2023-04-03T00:08:40;93770.59;;;6.38;68.99
77041;BME280;65974;42.664;23.264;2023-04-03T00:11:06;93771.13;;;6.58;67.82
77041;BME280;65974;42.664;23.264;2023-04-03T00:13:32;93772.28;;;6.67;67.42
77041;BME280;65974;42.664;23.264;2023-04-03T00:15:58;93768.41;;;6.51;68.45
77041;BME280;65974;42.664;23.264;2023-04-03T00:18:24;93756.59;;;6.41;68.41
77041;BME280;65974;42.664;23.264;2023-04-03T00:20:50;93755.03;;;6.30;69.62
77041;BME280;65974;42.664;23.264;2023-04-03T00:23:15;93755.72;;;6.23;69.64
77041;BME280;65974;42.664;23.264;2023-04-03T00:25:41;93754.13;;;6.11;70.08
77041;BME280;65974;42.664;23.264;2023-04-03T00:28:07;93750.81;;;6.21;69.31
77041;BME280;65974;42.664;23.264;2023-04-03T00:30:33;93750.06;;;6.21;69.48
77041;BME280;65974;42.664;23.264;2023-04-03T00:32:58;93747.56;;;6.42;68.92
77041;BME280;65974;42.664;23.264;2023-04-03T00:35:24;93751.56;;;6.22;69.80
77041;BME280;65974;42.664;23.264;2023-04-03T00:37:51;93757.13;;;6.10;69.96
77041;BME280;65974;42.664;23.264;2023-04-03T00:40:17;93760.06;;;5.98;70.50
77041;BME280;65974;42.664;23.264;2023-04-03T00:42:46;93762.41;;;6.06;69.94
77041;BME280;65974;42.664;23.264;2023-04-03T00:47:43;93758.59;;;6.04;70.01
77041;BME280;65974;42.664;23.264;2023-04-03T00:50:09;93759.28;;;5.97;70.76
77041;BME280;65974;42.664;23.264;2023-04-03T00:52:35;93750.97;;;5.99;70.46
77041;BME280;65974;42.664;23.264;2023-04-03T00:55:06;93755.56;;;6.02;70.62
77041;BME280;65974;42.664;23.264;2023-04-03T00:57:33;93763.81;;;5.97;70.44
77041;BME280;65974;42.664;23.264;2023-04-03T01:00:03;93769.09;;;5.97;70.03
77041;BME280;65974;42.664;23.264;2023-04-03T01:02:30;93769.88;;;6.01;70.27
77041;BME280;65974;42.664;23.264;2023-04-03T01:04:55;93768.84;;;6.09;69.83
77041;BME280;65974;42.664;23.264;2023-04-03T01:07:27;93760.09;;;6.05;69.96
77041;BME280;65974;42.664;23.264;2023-04-03T01:09:58;93766.91;;;6.06;69.62
77041;BME280;65974;42.664;23.264;2023-04-03T01:12:28;93773.38;;;6.08;69.63
77041;BME280;65974;42.664;23.264;2023-04-03T01:14:57;93771.47;;;6.09;69.21
77041;BME280;65974;42.664;23.264;2023-04-03T01:22:56;93774.94;;;6.16;69.31
77041;BME280;65974;42.664;23.264;2023-04-03T01:25:24;93765.44;;;6.12;69.18
77041;BME280;65974;42.664;23.264;2023-04-03T01:27:50;93762.41;;;6.10;69.73
77041;BME280;65974;42.664;23.264;2023-04-03T01:30:18;93765.00;;;6.03;69.38
77041;BME280;65974;42.664;23.264;2023-04-03T01:32:44;93765.75;;;6.03;69.78
77041;BME280;65974;42.664;23.264;2023-04-03T01:35:10;93766.09;;;5.98;69.40
77041;BME280;65974;42.664;23.264;2023-04-03T01:37:35;93770.28;;;6.03;69.45
77041;BME280;65974;42.664;23.264;2023-04-03T01:40:01;93767.94;;;5.94;69.17
77041;BME280;65974;42.664;23.264;2023-04-03T01:42:27;93755.41;;;5.88;69.55
77041;BME280;65974;42.664;23.264;2023-04-03T01:44:52;93764.47;;;5.87;69.88
77041;BME280;65974;42.664;23.264;2023-04-03T01:47:18;93765.91;;;5.81;69.63
77041;BME280;65974;42.664;23.264;2023-04-03T01:49:43;93761.00;;;5.83;69.79
77041;BME280;65974;42.664;23.264;2023-04-03T01:52:09;93762.94;;;5.86;69.89
77041;BME280;65974;42.664;23.264;2023-04-03T01:54:35;93764.47;;;5.87;70.17
77041;BME280;65974;42.664;23.264;2023-04-03T01:57:00;93769.78;;;5.90;69.40
77041;BME280;65974;42.664;23.264;2023-04-03T01:59:25;93765.97;;;5.88;69.55
77041;BME280;65974;42.664;23.264;2023-04-03T02:01:51;93758.06;;;5.88;69.41
77041;BME280;65974;42.664;23.264;2023-04-03T02:04:16;93758.78;;;5.85;69.40
77041;BME280;65974;42.664;23.264;2023-04-03T02:06:42;93755.78;;;5.86;69.85
77041;BME280;65974;42.664;23.264;2023-04-03T02:09:07;93750.41;;;5.79;70.07
77041;BME280;65974;42.664;23.264;2023-04-03T02:11:32;93751.84;;;5.73;70.20
77041;BME280;65974;42.664;23.264;2023-04-03T02:13:58;93759.78;;;5.73;70.19
77041;BME280;65974;42.664;23.264;2023-04-03T02:16:23;93768.00;;;5.65;69.96
77041;BME280;65974;42.664;23.264;2023-04-03T02:18:49;93763.09;;;5.67;70.51
77041;BME280;65974;42.664;23.264;2023-04-03T02:21:15;93761.28;;;5.71;70.52
77041;BME280;65974;42.664;23.264;2023-04-03T02:23:40;93754.06;;;5.68;70.65
77041;BME280;65974;42.664;23.264;2023-04-03T02:26:11;93743.22;;;5.80;70.21
77041;BME280;65974;42.664;23.264;2023-04-03T02:28:38;93744.38;;;5.79;70.01
77041;BME280;65974;42.664;23.264;2023-04-03T02:31:04;93749.28;;;5.80;69.68
77041;BME280;65974;42.664;23.264;2023-04-03T02:33:31;93744.63;;;5.67;70.99
77041;BME280;65974;42.664;23.264;2023-04-03T02:35:57;93749.91;;;5.67;71.03
77041;BME280;65974;42.664;23.264;2023-04-03T02:38:23;93749.91;;;5.67;71.18
77041;BME280;65974;42.664;23.264;2023-04-03T02:40:49;93743.78;;;5.59;71.32
77041;BME280;65974;42.664;23.264;2023-04-03T02:43:15;93745.28;;;5.57;71.50
77041;BME280;65974;42.664;23.264;2023-04-03T02:45:40;93747.53;;;5.58;71.18
77041;BME280;65974;42.664;23.264;2023-04-03T02:48:05;93739.19;;;5.53;71.73
77041;BME280;65974;42.664;23.264;2023-04-03T02:50:31;93737.34;;;5.57;71.37
77041;BME280;65974;42.664;23.264;2023-04-03T02:52:56;93737.66;;;5.51;71.71
77041;BME280;65974;42.664;23.264;2023-04-03T02:55:22;93731.97;;;5.46;71.90
77041;BME280;65974;42.664;23.264;2023-04-03T02:57:47;93735.69;;;5.41;72.06
77041;BME280;65974;42.664;23.264;2023-04-03T03:00:13;93726.16;;;5.33;72.40
77041;BME280;65974;42.664;23.264;2023-04-03T03:02:39;93725.06;;;5.34;72.69
77041;BME280;65974;42.664;23.264;2023-04-03T03:05:05;93717.81;;;5.28;73.15
77041;BME280;65974;42.664;23.264;2023-04-03T03:07:31;93724.59;;;5.25;73.12
77041;BME280;65974;42.664;23.264;2023-04-03T03:09:56;93728.00;;;5.29;72.88
77041;BME280;65974;42.664;23.264;2023-04-03T03:12:21;93727.63;;;5.27;72.79
77041;BME280;65974;42.664;23.264;2023-04-03T03:14:48;93725.78;;;5.31;72.72
77041;BME280;65974;42.664;23.264;2023-04-03T03:17:14;93717.06;;;5.27;72.29
77041;BME280;65974;42.664;23.264;2023-04-03T03:19:39;93718.50;;;5.21;72.54
77041;BME280;65974;42.664;23.264;2023-04-03T03:22:05;93727.22;;;5.25;72.58
77041;BME280;65974;42.664;23.264;2023-04-03T03:24:30;93721.44;;;5.13;72.68
77041;BME280;65974;42.664;23.264;2023-04-03T03:26:56;93725.06;;;5.05;73.36
77041;BME280;65974;42.664;23.264;2023-04-03T03:29:21;93722.41;;;5.01;73.39
77041;BME280;65974;42.664;23.264;2023-04-03T03:31:47;93716.69;;;4.96;74.15
77041;BME280;65974;42.664;23.264;2023-04-03T03:34:12;93719.34;;;4.96;74.20
77041;BME280;65974;42.664;23.264;2023-04-03T03:36:38;93719.78;;;5.01;73.66
77041;BME280;65974;42.664;23.264;2023-04-03T03:39:04;93725.03;;;5.01;74.42
77041;BME280;65974;42.664;23.264;2023-04-03T03:41:29;93724.28;;;5.01;74.09
77041;BME280;65974;42.664;23.264;2023-04-03T03:43:56;93728.34;;;4.95;74.45
77041;BME280;65974;42.664;23.264;2023-04-03T03:46:21;93717.91;;;5.02;74.36
77041;BME280;65974;42.664;23.264;2023-04-03T03:48:48;93713.06;;;5.07;73.94
77041;BME280;65974;42.664;23.264;2023-04-03T03:51:13;93714.50;;;5.01;74.02
77041;BME280;65974;42.664;23.264;2023-04-03T03:53:39;93736.25;;;4.91;74.72
77041;BME280;65974;42.664;23.264;2023-04-03T03:56:05;93727.97;;;4.93;74.53
77041;BME280;65974;42.664;23.264;2023-04-03T03:58:31;93731.47;;;5.00;74.20
77041;BME280;65974;42.664;23.264;2023-04-03T04:01:00;93734.50;;;5.02;74.21
77041;BME280;65974;42.664;23.264;2023-04-03T04:03:26;93733.75;;;5.05;74.05
77041;BME280;65974;42.664;23.264;2023-04-03T04:05:52;93726.09;;;4.93;74.48
77041;BME280;65974;42.664;23.264;2023-04-03T04:08:17;93727.19;;;4.92;74.80
77041;BME280;65974;42.664;23.264;2023-04-03T04:10:43;93724.28;;;5.01;74.41
77041;BME280;65974;42.664;23.264;2023-04-03T04:13:08;93729.81;;;4.92;74.40
77041;BME280;65974;42.664;23.264;2023-04-03T04:15:34;93731.13;;;5.05;74.67
77041;BME280;65974;42.664;23.264;2023-04-03T04:17:59;93742.44;;;5.06;74.18
77041;BME280;65974;42.664;23.264;2023-04-03T04:20:25;93749.19;;;5.03;74.51
77041;BME280;65974;42.664;23.264;2023-04-03T04:22:50;93748.41;;;4.99;74.63
77041;BME280;65974;42.664;23.264;2023-04-03T04:25:16;93746.72;;;4.88;75.28
77041;BME280;65974;42.664;23.264;2023-04-03T04:27:41;93745.25;;;4.90;75.26
77041;BME280;65974;42.664;23.264;2023-04-03T04:30:07;93744.91;;;4.92;75.33
77041;BME280;65974;42.664;23.264;2023-04-03T04:32:33;93739.25;;;4.90;75.40
77041;BME280;65974;42.664;23.264;2023-04-03T04:34:58;93753.16;;;4.90;75.38
77041;BME280;65974;42.664;23.264;2023-04-03T04:37:24;93748.88;;;4.79;76.26
77041;BME280;65974;42.664;23.264;2023-04-03T04:39:49;93765.13;;;4.81;75.78
77041;BME280;65974;42.664;23.264;2023-04-03T04:42:15;93760.28;;;4.86;75.73
77041;BME280;65974;42.664;23.264;2023-04-03T04:44:40;93750.19;;;4.92;75.69
77041;BME280;65974;42.664;23.264;2023-04-03T04:47:06;93754.06;;;5.01;75.64
77041;BME280;65974;42.664;23.264;2023-04-03T04:49:31;93758.25;;;5.02;75.33
77041;BME280;65974;42.664;23.264;2023-04-03T04:51:57;93768.88;;;5.09;75.23
77041;BME280;65974;42.664;23.264;2023-04-03T04:54:22;93763.69;;;5.16;74.63
77041;BME280;65974;42.664;23.264;2023-04-03T04:56:48;93761.44;;;5.18;75.51
77041;BME280;65974;42.664;23.264;2023-04-03T04:59:13;93765.97;;;5.18;75.47
77041;BME280;65974;42.664;23.264;2023-04-03T05:01:39;93769.75;;;5.20;75.38
77041;BME280;65974;42.664;23.264;2023-04-03T05:04:04;93768.66;;;5.21;75.83
77041;BME280;65974;42.664;23.264;2023-04-03T05:06:30;93771.22;;;5.18;76.01
77041;BME280;65974;42.664;23.264;2023-04-03T05:08:57;93770.50;;;5.17;76.11
77041;BME280;65974;42.664;23.264;2023-04-03T05:11:23;93773.84;;;5.14;76.27
77041;BME280;65974;42.664;23.264;2023-04-03T05:13:49;93784.09;;;5.19;76.60
77041;BME280;65974;42.664;23.264;2023-04-03T05:16:15;93790.25;;;5.30;76.25
77041;BME280;65974;42.664;23.264;2023-04-03T05:18:40;93787.28;;;5.35;75.61
77041;BME280;65974;42.664;23.264;2023-04-03T05:21:05;93784.28;;;5.37;75.66
77041;BME280;65974;42.664;23.264;2023-04-03T05:23:31;93787.69;;;5.37;75.82
77041;BME280;65974;42.664;23.264;2023-04-03T05:25:57;93800.22;;;5.44;75.21
77041;BME280;65974;42.664;23.264;2023-04-03T05:28:22;93796.19;;;5.54;75.52
77041;BME280;65974;42.664;23.264;2023-04-03T05:30:55;93798.88;;;5.57;75.17
77041;BME280;65974;42.664;23.264;2023-04-03T05:33:21;93798.66;;;5.73;74.93
77041;BME280;65974;42.664;23.264;2023-04-03T05:35:47;93795.69;;;5.78;73.94
77041;BME280;65974;42.664;23.264;2023-04-03T05:38:12;93794.50;;;5.75;73.74
77041;BME280;65974;42.664;23.264;2023-04-03T05:40:37;93794.19;;;5.77;73.45
77041;BME280;65974;42.664;23.264;2023-04-03T05:43:03;93793.81;;;5.82;72.94
77041;BME280;65974;42.664;23.264;2023-04-03T05:45:29;93793.63;;;5.94;73.07
77041;BME280;65974;42.664;23.264;2023-04-03T05:47:55;93787.25;;;5.98;73.31
77041;BME280;65974;42.664;23.264;2023-04-03T05:50:21;93780.09;;;6.02;73.18
77041;BME280;65974;42.664;23.264;2023-04-03T05:52:48;93780.50;;;6.04;72.86
77041;BME280;65974;42.664;23.264;2023-04-03T05:55:16;93777.94;;;6.15;72.39
77041;BME280;65974;42.664;23.264;2023-04-03T05:57:41;93784.03;;;6.22;71.90
77041;BME280;65974;42.664;23.264;2023-04-03T06:00:08;93783.66;;;6.24;70.88
77041;BME280;65974;42.664;23.264;2023-04-03T06:02:35;93781.00;;;6.17;70.84
77041;BME280;65974;42.664;23.264;2023-04-03T06:05:01;93781.78;;;6.21;70.88
77041;BME280;65974;42.664;23.264;2023-04-03T06:07:27;93782.94;;;6.23;71.13
77041;BME280;65974;42.664;23.264;2023-04-03T06:09:55;93773.06;;;6.20;71.37
77041;BME280;65974;42.664;23.264;2023-04-03T06:12:21;93763.28;;;6.21;71.36
77041;BME280;65974;42.664;23.264;2023-04-03T06:14:47;93759.94;;;6.31;71.55
77041;BME280;65974;42.664;23.264;2023-04-03T06:17:14;93749.81;;;6.40;71.28
77041;BME280;65974;42.664;23.264;2023-04-03T06:19:40;93756.66;;;6.45;71.30
77041;BME280;65974;42.664;23.264;2023-04-03T06:22:06;93761.88;;;6.38;70.99
77041;BME280;65974;42.664;23.264;2023-04-03T06:24:32;93769.13;;;6.48;70.97
77041;BME280;65974;42.664;23.264;2023-04-03T06:26:57;93771.13;;;6.61;71.02
77041;BME280;65974;42.664;23.264;2023-04-03T06:29:23;93771.13;;;6.65;70.63
77041;BME280;65974;42.664;23.264;2023-04-03T06:31:50;93758.69;;;6.69;70.17
77041;BME280;65974;42.664;23.264;2023-04-03T06:34:16;93762.88;;;6.73;69.87
77041;BME280;65974;42.664;23.264;2023-04-03T06:36:42;93767.06;;;6.74;69.91
77041;BME280;65974;42.664;23.264;2023-04-03T06:39:12;93773.19;;;6.85;69.13
77041;BME280;65974;42.664;23.264;2023-04-03T06:41:38;93769.00;;;6.88;68.92
77041;BME280;65974;42.664;23.264;2023-04-03T06:44:04;93780.78;;;6.94;68.69
77041;BME280;65974;42.664;23.264;2023-04-03T06:46:30;93775.13;;;6.99;68.69
77041;BME280;65974;42.664;23.264;2023-04-03T06:48:55;93767.63;;;7.04;69.00
77041;BME280;65974;42.664;23.264;2023-04-03T06:53:49;93790.06;;;7.28;68.29
77041;BME280;65974;42.664;23.264;2023-04-03T06:56:16;93796.84;;;7.33;67.86
77041;BME280;65974;42.664;23.264;2023-04-03T06:58:42;93795.75;;;7.37;67.14
77041;BME280;65974;42.664;23.264;2023-04-03T07:01:11;93794.28;;;7.47;67.32
77041;BME280;65974;42.664;23.264;2023-04-03T07:03:37;93793.91;;;7.48;66.95
77041;BME280;65974;42.664;23.264;2023-04-03T07:06:04;93788.25;;;7.53;66.82
77041;BME280;65974;42.664;23.264;2023-04-03T07:08:31;93777.25;;;7.44;66.50
77041;BME280;65974;42.664;23.264;2023-04-03T07:10:56;93791.22;;;7.34;66.88
77041;BME280;65974;42.664;23.264;2023-04-03T07:13:22;93782.91;;;7.43;66.93
77041;BME280;65974;42.664;23.264;2023-04-03T07:15:47;93767.78;;;7.54;66.55
77041;BME280;65974;42.664;23.264;2023-04-03T07:18:13;93770.47;;;7.57;66.99
77041;BME280;65974;42.664;23.264;2023-04-03T07:20:39;93783.00;;;7.64;65.64
77041;BME280;65974;42.664;23.264;2023-04-03T07:23:04;93770.88;;;7.70;66.26
77041;BME280;65974;42.664;23.264;2023-04-03T07:25:30;93770.16;;;7.73;65.63
77041;BME280;65974;42.664;23.264;2023-04-03T07:27:57;93769.03;;;7.81;65.63
77041;BME280;65974;42.664;23.264;2023-04-03T07:30:23;93758.03;;;7.79;65.57
77041;BME280;65974;42.664;23.264;2023-04-03T07:32:48;93764.88;;;7.83;65.91
77041;BME280;65974;42.664;23.264;2023-04-03T07:35:14;93764.88;;;7.87;65.32
77041;BME280;65974;42.664;23.264;2023-04-03T07:37:40;93759.19;;;7.99;65.30
77041;BME280;65974;42.664;23.264;2023-04-03T07:40:06;93760.38;;;8.09;65.49
77041;BME280;65974;42.664;23.264;2023-04-03T07:42:32;93748.25;;;8.11;64.66
77041;BME280;65974;42.664;23.264;2023-04-03T07:44:57;93742.16;;;8.14;64.41
77041;BME280;65974;42.664;23.264;2023-04-03T07:47:23;93741.47;;;8.38;64.70
77041;BME280;65974;42.664;23.264;2023-04-03T07:49:48;93732.34;;;8.46;63.67
77041;BME280;65974;42.664;23.264;2023-04-03T07:52:14;93727.78;;;8.43;63.56
77041;BME280;65974;42.664;23.264;2023-04-03T07:54:41;93743.34;;;8.41;62.81
77041;BME280;65974;42.664;23.264;2023-04-03T07:57:07;93733.50;;;8.49;62.72
77041;BME280;65974;42.664;23.264;2023-04-03T07:59:33;93729.31;;;8.51;62.64
77041;BME280;65974;42.664;23.264;2023-04-03T08:01:58;93721.34;;;8.58;62.81
77041;BME280;65974;42.664;23.264;2023-04-03T08:04:24;93734.59;;;8.73;62.96
77041;BME280;65974;42.664;23.264;2023-04-03T08:06:51;93738.34;;;8.93;61.91
77041;BME280;65974;42.664;23.264;2023-04-03T08:09:17;93731.53;;;8.92;62.08
77041;BME280;65974;42.664;23.264;2023-04-03T08:11:44;93729.59;;;9.03;62.09
77041;BME280;65974;42.664;23.264;2023-04-03T08:14:10;93720.88;;;8.95;61.63
77041;BME280;65974;42.664;23.264;2023-04-03T08:16:40;93718.63;;;8.94;62.03
77041;BME280;65974;42.664;23.264;2023-04-03T08:19:06;93729.22;;;9.04;61.21
77041;BME280;65974;42.664;23.264;2023-04-03T08:21:32;93710.94;;;9.24;60.75
77041;BME280;65974;42.664;23.264;2023-04-03T08:23:58;93722.69;;;9.30;60.35
77041;BME280;65974;42.664;23.264;2023-04-03T08:26:23;93726.06;;;9.34;59.86
77041;BME280;65974;42.664;23.264;2023-04-03T08:28:49;93721.50;;;9.38;59.90
77041;BME280;65974;42.664;23.264;2023-04-03T08:31:17;93723.34;;;9.48;59.24
77041;BME280;65974;42.664;23.264;2023-04-03T08:33:44;93715.00;;;9.50;58.70
77041;BME280;65974;42.664;23.264;2023-04-03T08:36:21;93711.50;;;9.63;59.08
77041;BME280;65974;42.664;23.264;2023-04-03T08:38:47;93703.53;;;9.63;59.58
77041;BME280;65974;42.664;23.264;2023-04-03T08:41:15;93700.78;;;9.77;58.62
77041;BME280;65974;42.664;23.264;2023-04-03T08:43:58;93697.00;;;9.75;58.65
77041;BME280;65974;42.664;23.264;2023-04-03T08:46:40;93693.91;;;9.80;58.37
77041;BME280;65974;42.664;23.264;2023-04-03T08:49:26;93696.22;;;9.81;59.14
77041;BME280;65974;42.664;23.264;2023-04-03T08:51:54;93690.84;;;9.85;59.49
77041;BME280;65974;42.664;23.264;2023-04-03T08:54:27;93693.78;;;10.01;58.56
77041;BME280;65974;42.664;23.264;2023-04-03T08:56:54;93689.28;;;9.94;58.55
77041;BME280;65974;42.664;23.264;2023-04-03T08:59:27;93688.09;;;10.02;58.54
77041;BME280;65974;42.664;23.264;2023-04-03T09:01:58;93683.78;;;10.19;58.65
77041;BME280;65974;42.664;23.264;2023-04-03T09:04:26;93675.38;;;10.28;57.78
77041;BME280;65974;42.664;23.264;2023-04-03T09:06:57;93672.25;;;10.36;57.59
77041;BME280;65974;42.664;23.264;2023-04-03T09:09:40;93667.59;;;10.47;57.58
77041;BME280;65974;42.664;23.264;2023-04-03T09:12:25;93666.81;;;10.47;57.37
77041;BME280;65974;42.664;23.264;2023-04-03T09:25:40;93645.28;;;10.71;56.46
77041;BME280;65974;42.664;23.264;2023-04-03T09:28:06;93645.91;;;10.86;56.63
77041;BME280;65974;42.664;23.264;2023-04-03T09:30:34;93648.03;;;10.98;56.25
77041;BME280;65974;42.664;23.264;2023-04-03T09:33:00;93637.16;;;11.16;55.61
77041;BME280;65974;42.664;23.264;2023-04-03T09:35:28;93641.91;;;11.31;54.96
77041;BME280;65974;42.664;23.264;2023-04-03T09:40:39;93633.22;;;11.54;53.85
77041;BME280;65974;42.664;23.264;2023-04-03T09:45:44;93626.97;;;11.67;51.08
77041;BME280;65974;42.664;23.264;2023-04-03T09:50:52;93623.59;;;11.90;50.62
77041;BME280;65974;42.664;23.264;2023-04-03T09:53:41;93621.63;;;11.94;50.74
77041;BME280;65974;42.664;23.264;2023-04-03T09:56:26;93621.56;;;11.98;50.61
77041;BME280;65974;42.664;23.264;2023-04-03T10:01:25;93600.44;;;12.07;49.69
77041;BME280;65974;42.664;23.264;2023-04-03T10:04:13;93608.72;;;12.12;49.56
77041;BME280;65974;42.664;23.264;2023-04-03T10:06:48;93603.81;;;12.11;49.33
77041;BME280;65974;42.664;23.264;2023-04-03T10:12:07;93599.69;;;12.06;49.82
77041;BME280;65974;42.664;23.264;2023-04-03T10:14:56;93594.75;;;12.05;49.79
77041;BME280;65974;42.664;23.264;2023-04-03T10:20:30;93597.00;;;12.06;50.10
77041;BME280;65974;42.664;23.264;2023-04-03T10:31:19;93582.63;;;12.00;49.54
77041;BME280;65974;42.664;23.264;2023-04-03T10:33:51;93587.13;;;12.03;49.94
77041;BME280;65974;42.664;23.264;2023-04-03T10:36:42;93580.94;;;12.10;50.21
77041;BME280;65974;42.664;23.264;2023-04-03T10:39:37;93573.63;;;12.14;50.62
77041;BME280;65974;42.664;23.264;2023-04-03T10:42:43;93569.91;;;12.08;49.79
77041;BME280;65974;42.664;23.264;2023-04-03T10:50:43;93572.22;;;12.06;50.29
77041;BME280;65974;42.664;23.264;2023-04-03T10:58:36;93573.41;;;11.82;50.98
77041;BME280;65974;42.664;23.264;2023-04-03T11:01:09;93576.06;;;11.82;51.88
77041;BME280;65974;42.664;23.264;2023-04-03T11:03:53;93582.72;;;11.70;51.78
77041;BME280;65974;42.664;23.264;2023-04-03T11:06:22;93577.47;;;11.66;52.98
77041;BME280;65974;42.664;23.264;2023-04-03T11:09:00;93588.19;;;11.59;53.41
77041;BME280;65974;42.664;23.264;2023-04-03T11:11:38;93587.22;;;11.46;55.74
77041;BME280;65974;42.664;23.264;2023-04-03T11:17:10;93592.88;;;11.25;58.02
77041;BME280;65974;42.664;23.264;2023-04-03T11:20:06;93586.22;;;11.10;58.76
77041;BME280;65974;42.664;23.264;2023-04-03T11:23:24;93584.09;;;10.98;60.14
77041;BME280;65974;42.664;23.264;2023-04-03T11:26:08;93579.72;;;10.81;61.48
77041;BME280;65974;42.664;23.264;2023-04-03T11:28:35;93588.25;;;10.69;62.81
77041;BME280;65974;42.664;23.264;2023-04-03T11:31:19;93592.13;;;10.61;64.26
77041;BME280;65974;42.664;23.264;2023-04-03T11:36:38;93597.31;;;10.41;65.82
77041;BME280;65974;42.664;23.264;2023-04-03T11:39:26;93590.16;;;10.31;67.05
77041;BME280;65974;42.664;23.264;2023-04-03T11:41:54;93584.63;;;10.11;69.43
77041;BME280;65974;42.664;23.264;2023-04-03T11:44:37;93588.84;;;10.09;70.51
77041;BME280;65974;42.664;23.264;2023-04-03T11:47:05;93583.97;;;10.00;70.93
77041;BME280;65974;42.664;23.264;2023-04-03T11:49:50;93585.88;;;10.00;72.63
77041;BME280;65974;42.664;23.264;2023-04-03T12:05:51;93590.25;;;9.76;74.48
77041;BME280;65974;42.664;23.264;2023-04-03T12:14:01;93593.47;;;9.50;75.96
77041;BME280;65974;42.664;23.264;2023-04-03T12:16:43;93582.91;;;9.39;76.54
77041;BME280;65974;42.664;23.264;2023-04-03T12:19:30;93586.03;;;9.27;77.26
77041;BME280;65974;42.664;23.264;2023-04-03T12:24:36;93562.59;;;9.15;78.38
77041;BME280;65974;42.664;23.264;2023-04-03T12:27:27;93564.53;;;9.08;78.87
77041;BME280;65974;42.664;23.264;2023-04-03T12:40:37;93545.31;;;8.83;80.98
77041;BME280;65974;42.664;23.264;2023-04-03T12:45:46;93537.78;;;8.74;81.87
77041;BME280;65974;42.664;23.264;2023-04-03T12:48:15;93526.75;;;8.76;81.73
77041;BME280;65974;42.664;23.264;2023-04-03T12:50:43;93516.19;;;8.69;81.63
77041;BME280;65974;42.664;23.264;2023-04-03T12:53:18;93516.19;;;8.69;81.92
77041;BME280;65974;42.664;23.264;2023-04-03T12:55:44;93515.03;;;8.70;82.74
77041;BME280;65974;42.664;23.264;2023-04-03T12:58:25;93513.94;;;8.64;82.95
77041;BME280;65974;42.664;23.264;2023-04-03T13:01:03;93521.53;;;8.62;83.14
77041;BME280;65974;42.664;23.264;2023-04-03T13:03:29;93513.97;;;8.60;83.50
77041;BME280;65974;42.664;23.264;2023-04-03T13:05:59;93519.22;;;8.67;83.28
77041;BME280;65974;42.664;23.264;2023-04-03T13:08:25;93517.78;;;8.55;82.78
77041;BME280;65974;42.664;23.264;2023-04-03T13:13:25;93511.69;;;8.58;83.59
77041;BME280;65974;42.664;23.264;2023-04-03T13:15:52;93509.06;;;8.51;83.93
77041;BME280;65974;42.664;23.264;2023-04-03T13:20:51;93506.84;;;8.36;84.17
77041;BME280;65974;42.664;23.264;2023-04-03T13:23:18;93510.63;;;8.35;84.01
77041;BME280;65974;42.664;23.264;2023-04-03T13:25:47;93504.94;;;8.40;84.76
77041;BME280;65974;42.664;23.264;2023-04-03T13:28:18;93501.19;;;8.27;85.00
77041;BME280;65974;42.664;23.264;2023-04-03T13:33:23;93503.47;;;8.21;85.07
77041;BME280;65974;42.664;23.264;2023-04-03T13:35:57;93506.50;;;8.23;85.96
77041;BME280;65974;42.664;23.264;2023-04-03T13:38:26;93501.94;;;8.20;85.75
77041;BME280;65974;42.664;23.264;2023-04-03T13:40:56;93504.22;;;8.18;85.80
77041;BME280;65974;42.664;23.264;2023-04-03T13:43:27;93500.81;;;8.18;86.27
77041;BME280;65974;42.664;23.264;2023-04-03T13:45:55;93501.22;;;8.16;85.87
77041;BME280;65974;42.664;23.264;2023-04-03T13:48:22;93496.31;;;8.11;85.98
77041;BME280;65974;42.664;23.264;2023-04-03T13:51:21;93495.94;;;8.13;86.50
77041;BME280;65974;42.664;23.264;2023-04-03T13:56:36;93487.59;;;8.07;86.48
77041;BME280;65974;42.664;23.264;2023-04-03T14:04:29;93481.19;;;8.01;85.46
77041;BME280;65974;42.664;23.264;2023-04-03T14:06:55;93488.41;;;7.94;84.46
77041;BME280;65974;42.664;23.264;2023-04-03T14:09:24;93489.56;;;7.89;85.57
77041;BME280;65974;42.664;23.264;2023-04-03T14:11:54;93486.91;;;7.89;85.64
77041;BME280;65974;42.664;23.264;2023-04-03T14:14:22;93482.75;;;7.92;85.35
77041;BME280;65974;42.664;23.264;2023-04-03T14:17:00;93483.88;;;7.87;85.42
77041;BME280;65974;42.664;23.264;2023-04-03T14:19:30;93480.84;;;7.85;84.72
77041;BME280;65974;42.664;23.264;2023-04-03T14:21:57;93484.63;;;7.84;85.12
77041;BME280;65974;42.664;23.264;2023-04-03T14:24:24;93477.06;;;7.82;84.00
77041;BME280;65974;42.664;23.264;2023-04-03T14:26:52;93478.59;;;7.76;83.99
77041;BME280;65974;42.664;23.264;2023-04-03T14:29:19;93477.09;;;7.75;82.48
77041;BME280;65974;42.664;23.264;2023-04-03T14:31:49;93475.59;;;7.74;83.49
77041;BME280;65974;42.664;23.264;2023-04-03T14:34:15;93467.25;;;7.76;83.40
77041;BME280;65974;42.664;23.264;2023-04-03T14:36:42;93475.97;;;7.73;83.34
77041;BME280;65974;42.664;23.264;2023-04-03T14:39:11;93467.25;;;7.65;83.88
77041;BME280;65974;42.664;23.264;2023-04-03T14:41:41;93458.19;;;7.63;84.09
77041;BME280;65974;42.664;23.264;2023-04-03T14:44:07;93468.03;;;7.62;83.75
77041;BME280;65974;42.664;23.264;2023-04-03T14:46:36;93463.88;;;7.61;83.27
77041;BME280;65974;42.664;23.264;2023-04-03T14:49:03;93455.94;;;7.61;83.74
77041;BME280;65974;42.664;23.264;2023-04-03T14:51:34;93462.72;;;7.66;83.58
77041;BME280;65974;42.664;23.264;2023-04-03T14:53:59;93457.44;;;7.59;83.29
77041;BME280;65974;42.664;23.264;2023-04-03T14:56:27;93466.53;;;7.58;83.51
77041;BME280;65974;42.664;23.264;2023-04-03T14:58:59;93457.81;;;7.61;83.40